Time;durP1;ratioP1;P1;durP2;ratioP2;P2;SDS_P1;SDS_P2;PMS_P1;PMS_P2;Temp;Humidity;BMP_temperature;BMP_pressure;BME280_temperature;BME280_humidity;BME280_pressure;Samples;Min_cycle;Max_cycle;Signal;HPM_P1;HPM_P2
2021/08/05 00:00:18;;;;;;;18.30;16.40;;;;;;;18.35;71.10;100939.03;5061181;28;20178;-69
2021/08/05 00:02:43;;;;;;;15.00;13.40;;;;;;;18.11;71.75;100937.72;5060623;28;20446;-69
2021/08/05 00:05:10;;;;;;;13.80;12.40;;;;;;;18.29;71.71;100940.03;5061274;28;20198;-70
2021/08/05 00:07:35;;;;;;;11.93;10.00;;;;;;;18.05;71.99;100941.34;5061873;28;20189;-69
2021/08/05 00:10:01;;;;;;;11.93;10.73;;;;;;;18.02;72.17;100938.75;5060698;28;20435;-69
2021/08/05 00:12:26;;;;;;;8.50;7.77;;;;;;;17.37;73.23;100941.56;5060650;28;20184;-69
2021/08/05 00:14:51;;;;;;;9.03;8.20;;;;;;;17.56;73.46;100934.22;5060882;28;20216;-69
2021/08/05 00:17:17;;;;;;;15.83;14.17;;;;;;;17.93;72.83;100928.38;5061614;28;20191;-70
2021/08/05 00:19:42;;;;;;;10.37;9.37;;;;;;;17.92;72.23;100924.00;5061108;28;20519;-69
2021/08/05 00:22:07;;;;;;;7.57;6.90;;;;;;;17.75;72.32;100919.88;5060727;28;20177;-71
2021/08/05 00:24:33;;;;;;;11.30;9.70;;;;;;;18.01;71.84;100918.56;5072578;28;20231;-70
2021/08/05 00:26:58;;;;;;;16.30;12.93;;;;;;;18.06;71.77;100923.75;5060708;28;20555;-71
2021/08/05 00:29:24;;;;;;;8.17;7.20;;;;;;;17.71;71.39;100917.28;5061323;28;20208;-69
2021/08/05 00:31:50;;;;;;;7.00;6.30;;;;;;;17.05;74.05;100912.19;5061511;28;20239;-69
2021/08/05 00:34:15;;;;;;;8.03;6.70;;;;;;;16.89;74.77;100915.91;5060809;28;20252;-69
2021/08/05 00:36:41;;;;;;;6.90;6.30;;;;;;;17.07;74.57;100917.41;5060159;28;20474;-70
2021/08/05 00:39:06;;;;;;;6.83;6.23;;;;;;;17.27;74.25;100911.84;5061844;28;20200;-71
2021/08/05 00:41:32;;;;;;;7.60;6.47;;;;;;;16.91;75.10;100919.41;5060671;28;20177;-70
2021/08/05 00:43:58;;;;;;;7.80;7.10;;;;;;;17.43;74.26;100907.22;5060146;28;20293;-70
2021/08/05 00:46:23;;;;;;;7.57;6.87;;;;;;;16.86;75.38;100911.53;5059940;28;20205;-70
2021/08/05 00:48:48;;;;;;;7.10;6.40;;;;;;;16.98;74.21;100910.50;5062030;28;20463;-70
2021/08/05 00:51:14;;;;;;;6.63;6.00;;;;;;;17.30;72.79;100903.91;5060004;28;20563;-70
2021/08/05 00:53:42;;;;;;;6.30;5.70;;;;;;;17.05;73.40;100900.75;5059829;28;20268;-70
2021/08/05 00:56:07;;;;;;;8.20;6.10;;;;;;;16.95;74.22;100907.91;5078425;28;20272;-70
2021/08/05 00:58:32;;;;;;;6.63;6.00;;;;;;;17.23;73.04;100910.16;5077795;28;20529;-70
2021/08/05 01:01:02;;;;;;;7.50;5.50;;;;;;;17.06;73.21;100906.03;5060337;28;20238;-71
2021/08/05 01:03:31;;;;;;;6.40;5.27;;;;;;;16.77;73.48;100901.13;5059398;28;20524;-70
2021/08/05 01:06:10;;;;;;;5.70;5.10;;;;;;;17.17;72.85;100896.19;5068814;28;20563;-70
2021/08/05 01:08:38;;;;;;;5.60;5.10;;;;;;;16.80;72.71;100896.66;5059120;28;20791;-70
2021/08/05 01:11:12;;;;;;;5.77;5.17;;;;;;;16.49;74.94;100896.19;5061262;28;20508;-71
2021/08/05 01:13:42;;;;;;;9.80;5.20;;;;;;;16.86;73.04;100893.09;5058782;28;20408;-69
2021/08/05 01:16:13;;;;;;;7.40;5.40;;;;;;;16.62;73.90;100889.91;5058597;28;20435;-70
2021/08/05 01:18:40;;;;;;;6.83;4.83;;;;;;;16.55;73.76;100887.34;5076970;28;20709;-70
2021/08/05 01:21:20;;;;;;;5.07;4.67;;;;;;;16.97;72.79;100887.72;5066739;28;20439;-70
2021/08/05 01:23:57;;;;;;;6.20;5.60;;;;;;;17.13;70.71;100883.97;5059424;28;20729;-70
2021/08/05 01:26:31;;;;;;;5.33;4.83;;;;;;;17.22;70.96;100887.34;5059223;28;20471;-70
2021/08/05 01:28:58;;;;;;;5.20;4.80;;;;;;;16.75;71.78;100887.09;5059145;28;20779;-69
2021/08/05 01:31:25;;;;;;;5.53;4.93;;;;;;;17.58;69.48;100885.00;5066863;28;20854;-70
2021/08/05 01:33:51;;;;;;;5.20;4.63;;;;;;;17.55;68.35;100877.13;5076665;28;20400;-70
2021/08/05 01:36:17;;;;;;;5.40;4.90;;;;;;;17.53;69.30;100892.13;5066177;28;20443;-70
2021/08/05 01:38:44;;;;;;;4.77;4.13;;;;;;;17.61;68.38;100880.53;5058649;28;20444;-70
2021/08/05 01:41:11;;;;;;;6.30;4.80;;;;;;;17.57;67.65;100878.00;5060243;28;20479;-71
2021/08/05 01:43:37;;;;;;;6.53;4.60;;;;;;;17.51;68.85;100874.56;5058521;28;20538;-71
2021/08/05 01:46:03;;;;;;;7.77;5.10;;;;;;;17.47;67.74;100879.91;5059101;28;20534;-71
2021/08/05 01:48:29;;;;;;;4.80;4.40;;;;;;;17.20;69.37;100875.94;5058715;28;20432;-70
2021/08/05 01:50:54;;;;;;;6.97;4.63;;;;;;;17.43;68.08;100879.09;5058226;28;20177;-70
2021/08/05 01:53:20;;;;;;;4.87;4.47;;;;;;;17.13;68.71;100877.78;5059760;28;20192;-70
2021/08/05 01:55:46;;;;;;;5.40;4.90;;;;;;;16.91;69.52;100879.91;5057793;28;20185;-70
2021/08/05 01:58:12;;;;;;;6.63;4.50;;;;;;;17.04;69.95;100873.56;5058640;28;20503;-69
2021/08/05 02:00:38;;;;;;;5.00;4.50;;;;;;;16.87;70.31;100872.91;5058964;28;20491;-69
2021/08/05 02:03:04;;;;;;;6.93;6.20;;;;;;;17.85;67.19;100876.59;5059666;28;20235;-70
2021/08/05 02:05:48;;;;;;;8.97;6.07;;;;;;;18.33;64.78;100872.19;5060305;28;20193;-68
2021/08/05 02:08:17;;;;;;;5.07;4.67;;;;;;;17.47;66.88;100872.00;5057963;28;20473;-70
2021/08/05 02:10:47;;;;;;;5.00;4.50;;;;;;;18.16;64.73;100878.69;5057914;28;20420;-69
2021/08/05 02:13:28;;;;;;;8.80;4.37;;;;;;;18.14;64.56;100875.22;5060002;28;20452;-69
2021/08/05 02:15:57;;;;;;;4.70;4.40;;;;;;;18.31;63.83;100879.28;5059375;28;20701;-69
2021/08/05 02:18:26;;;;;;;5.90;4.73;;;;;;;17.15;67.41;100876.88;5062375;28;20462;-69
2021/08/05 02:20:52;;;;;;;4.93;4.53;;;;;;;17.56;66.44;100873.59;5074621;28;20819;-69
2021/08/05 02:23:17;;;;;;;4.83;4.43;;;;;;;17.56;65.05;100871.81;5057412;28;20452;-70
2021/08/05 02:25:44;;;;;;;4.90;4.40;;;;;;;17.42;66.43;100879.97;5059045;28;20296;-70
2021/08/05 02:28:09;;;;;;;5.00;4.60;;;;;;;17.26;66.43;100876.72;5057573;28;20184;-69
2021/08/05 02:30:36;;;;;;;7.40;4.30;;;;;;;17.59;65.42;100869.16;5058199;28;20408;-70
2021/08/05 02:33:02;;;;;;;6.30;4.40;;;;;;;17.26;67.00;100866.19;5057450;28;20432;-71
2021/08/05 02:35:27;;;;;;;4.80;4.40;;;;;;;17.78;64.98;100872.34;5059334;28;20687;-70
2021/08/05 02:37:53;;;;;;;4.70;4.30;;;;;;;17.70;65.54;100861.06;5057338;28;20258;-72
2021/08/05 02:40:18;;;;;;;5.10;4.60;;;;;;;17.89;64.51;100861.59;5058002;28;20212;-72
2021/08/05 02:42:45;;;;;;;4.80;3.80;;;;;;;17.45;64.91;100864.09;5057777;28;20173;-71
2021/08/05 02:45:11;;;;;;;4.60;4.20;;;;;;;17.04;66.79;100855.13;5059388;28;20184;-72
2021/08/05 02:47:37;;;;;;;4.93;4.23;;;;;;;17.44;65.43;100851.84;5077981;28;20855;-73
2021/08/05 02:50:04;;;;;;;4.50;4.10;;;;;;;17.50;65.63;100851.72;5059876;28;20178;-72
2021/08/05 02:52:29;;;;;;;4.93;4.53;;;;;;;17.09;66.95;100858.56;5058342;28;20539;-71
2021/08/05 02:54:54;;;;;;;4.57;4.10;;;;;;;17.07;66.05;100856.84;5057025;28;20423;-70
2021/08/05 02:57:20;;;;;;;8.00;4.40;;;;;;;17.99;63.94;100854.41;5059282;28;20268;-72
2021/08/05 02:59:45;;;;;;;5.13;4.40;;;;;;;17.37;65.23;100847.56;5057221;28;20617;-71
2021/08/05 03:02:13;;;;;;;4.37;3.70;;;;;;;17.15;66.13;100850.53;5056858;28;20472;-71
2021/08/05 03:04:39;;;;;;;4.80;4.03;;;;;;;17.56;65.09;100841.97;5057916;28;20216;-71
2021/08/05 03:07:04;;;;;;;4.53;4.10;;;;;;;17.72;64.15;100846.06;5059333;28;20541;-71
2021/08/05 03:09:30;;;;;;;5.50;4.17;;;;;;;17.97;63.14;100843.03;5057045;28;20255;-70
2021/08/05 03:11:55;;;;;;;5.10;4.40;;;;;;;18.05;62.45;100843.75;5058359;28;20235;-71
2021/08/05 03:14:20;;;;;;;4.67;3.97;;;;;;;17.79;62.89;100837.16;5057635;28;20177;-71
2021/08/05 03:16:46;;;;;;;6.10;3.90;;;;;;;18.07;62.63;100833.16;5060544;28;20277;-71
2021/08/05 03:19:11;;;;;;;4.83;4.40;;;;;;;17.66;63.34;100835.66;5064893;28;20169;-72
2021/08/05 03:21:36;;;;;;;4.20;3.90;;;;;;;17.28;64.30;100830.16;5077540;28;20642;-71
2021/08/05 03:24:01;;;;;;;4.50;4.10;;;;;;;17.52;63.82;100825.34;5077528;28;20278;-71
2021/08/05 03:26:27;;;;;;;4.50;4.10;;;;;;;17.56;63.48;100820.88;5065326;28;20258;-71
2021/08/05 03:28:52;;;;;;;4.43;3.90;;;;;;;17.60;62.86;100827.84;5057643;28;20178;-71
2021/08/05 03:31:18;;;;;;;4.20;3.90;;;;;;;17.69;62.98;100822.41;5057560;28;20201;-71
2021/08/05 03:33:46;;;;;;;4.37;3.97;;;;;;;17.81;62.62;100818.66;5057972;28;20184;-71
2021/08/05 03:36:11;;;;;;;5.50;4.30;;;;;;;17.16;64.18;100815.41;5058899;28;20197;-71
2021/08/05 03:38:36;;;;;;;3.90;3.60;;;;;;;17.70;62.41;100821.50;5057496;28;20469;-72
2021/08/05 03:41:03;;;;;;;4.70;3.83;;;;;;;17.72;62.86;100821.47;5057864;28;20450;-70
2021/08/05 03:43:28;;;;;;;4.00;3.70;;;;;;;17.02;64.25;100825.28;5057343;28;20188;-72
2021/08/05 03:45:54;;;;;;;7.00;4.07;;;;;;;17.21;63.94;100822.38;5061679;28;20488;-71
2021/08/05 03:48:19;;;;;;;6.30;4.00;;;;;;;17.33;63.37;100822.16;5061714;28;20189;-71
2021/08/05 03:50:45;;;;;;;5.80;4.50;;;;;;;17.62;62.93;100813.75;5070678;28;20555;-70
2021/08/05 03:53:10;;;;;;;4.27;3.93;;;;;;;17.78;62.07;100819.59;5057097;28;20235;-71
2021/08/05 03:55:35;;;;;;;7.00;4.03;;;;;;;17.44;62.91;100816.69;5061593;28;20182;-71
2021/08/05 03:58:01;;;;;;;4.40;3.93;;;;;;;17.54;62.35;100818.28;5060392;28;20177;-70
2021/08/05 04:00:26;;;;;;;4.13;3.83;;;;;;;17.70;61.80;100813.59;5060993;28;20189;-71
2021/08/05 04:02:51;;;;;;;4.37;4.00;;;;;;;17.18;63.11;100815.38;5061273;28;20180;-71
2021/08/05 04:05:16;;;;;;;6.10;3.90;;;;;;;17.65;62.35;100824.22;5061968;28;20212;-71
2021/08/05 04:07:42;;;;;;;5.33;4.37;;;;;;;17.57;62.27;100817.38;5060877;28;20500;-70
2021/08/05 04:10:08;;;;;;;4.30;3.90;;;;;;;17.72;62.34;100819.69;5066806;28;20215;-71
2021/08/05 04:12:34;;;;;;;4.73;4.13;;;;;;;17.15;62.89;100813.66;5080900;28;20173;-71
2021/08/05 04:14:59;;;;;;;4.53;4.13;;;;;;;17.11;63.32;100811.97;5077212;28;20717;-71
2021/08/05 04:17:24;;;;;;;4.53;4.13;;;;;;;17.61;61.87;100819.03;5060436;28;20280;-71
2021/08/05 04:19:50;;;;;;;5.30;4.27;;;;;;;17.50;62.40;100814.81;5060413;28;20188;-71
2021/08/05 04:22:15;;;;;;;4.20;3.80;;;;;;;17.61;62.24;100816.41;5066025;28;20560;-70
2021/08/05 04:24:40;;;;;;;4.63;3.90;;;;;;;17.59;61.81;100819.06;5078233;28;20221;-70
2021/08/05 04:27:06;;;;;;;4.57;4.17;;;;;;;17.70;62.01;100823.25;5078911;28;20590;-71
2021/08/05 04:29:31;;;;;;;6.80;4.47;;;;;;;17.82;61.56;100821.28;5080390;28;20185;-70
2021/08/05 04:31:57;;;;;;;5.33;3.60;;;;;;;17.53;62.19;100819.16;5073834;28;20494;-69
2021/08/05 04:34:22;;;;;;;4.27;3.90;;;;;;;17.77;61.71;100817.00;5080332;28;20188;-71
2021/08/05 04:36:47;;;;;;;4.87;4.47;;;;;;;18.03;61.01;100815.66;5062960;28;20184;-71
2021/08/05 04:39:13;;;;;;;4.47;4.07;;;;;;;18.25;59.48;100810.78;5061064;28;20571;-71
2021/08/05 04:41:38;;;;;;;4.53;4.03;;;;;;;18.37;59.92;100813.16;5063840;28;20185;-71
2021/08/05 04:44:04;;;;;;;4.60;4.17;;;;;;;18.25;59.88;100809.03;5060450;28;20544;-71
2021/08/05 04:46:29;;;;;;;4.00;3.60;;;;;;;18.31;59.81;100808.88;5063895;28;20233;-71
2021/08/05 04:48:54;;;;;;;4.30;3.90;;;;;;;17.64;61.74;100813.72;5080016;28;20416;-71
2021/08/05 04:51:19;;;;;;;4.70;4.30;;;;;;;17.75;61.94;100814.38;5073398;28;20188;-70
2021/08/05 04:53:45;;;;;;;4.67;4.30;;;;;;;17.31;62.90;100805.50;5060117;28;20247;-70
2021/08/05 04:56:10;;;;;;;5.93;5.43;;;;;;;17.55;62.18;100806.84;5059986;28;20200;-71
2021/08/05 04:58:35;;;;;;;5.93;4.70;;;;;;;17.73;61.93;100800.34;5060376;28;20209;-71
2021/08/05 05:01:01;;;;;;;5.57;4.10;;;;;;;18.08;60.86;100801.47;5059939;28;20174;-70
2021/08/05 05:03:26;;;;;;;4.60;4.20;;;;;;;17.55;62.35;100801.56;5071530;28;20180;-69
2021/08/05 05:05:51;;;;;;;8.30;4.30;;;;;;;18.09;60.46;100797.94;5088210;28;20216;-71
2021/08/05 05:08:22;;;;;;;6.30;4.33;;;;;;;17.49;61.78;100796.41;5078439;28;20283;-71
2021/08/05 05:10:50;;;;;;;4.43;4.03;;;;;;;17.71;60.95;100799.53;5070164;28;20247;-71
2021/08/05 05:13:15;;;;;;;4.90;4.27;;;;;;;17.70;60.84;100794.25;5059996;28;20429;-71
2021/08/05 05:15:41;;;;;;;5.17;4.13;;;;;;;17.48;62.46;100806.09;5059461;28;20527;-71
2021/08/05 05:18:07;;;;;;;5.33;4.30;;;;;;;17.64;61.54;100793.50;5059444;28;20174;-71
2021/08/05 05:20:33;;;;;;;4.50;4.10;;;;;;;17.39;62.48;100800.97;5059858;28;20506;-71
2021/08/05 05:22:58;;;;;;;4.70;4.20;;;;;;;17.53;62.18;100800.72;5080997;28;20318;-70
2021/08/05 05:25:24;;;;;;;6.83;4.50;;;;;;;18.27;59.70;100799.31;5059239;28;20208;-71
2021/08/05 05:27:50;;;;;;;6.97;4.57;;;;;;;17.76;61.03;100796.78;5059837;28;20177;-71
2021/08/05 05:30:15;;;;;;;7.00;4.37;;;;;;;18.07;60.62;100799.72;5059273;28;20412;-71
2021/08/05 05:32:43;;;;;;;7.63;4.10;;;;;;;17.53;61.66;100803.34;5059274;28;20241;-70
2021/08/05 05:35:10;;;;;;;5.00;4.60;;;;;;;18.13;60.18;100794.31;5059809;28;20180;-71
2021/08/05 05:37:36;;;;;;;5.03;4.57;;;;;;;17.87;60.04;100804.50;5069320;28;20841;-70
2021/08/05 05:40:02;;;;;;;6.90;4.30;;;;;;;17.82;61.09;100805.44;5078947;28;20443;-71
2021/08/05 05:42:27;;;;;;;4.60;4.20;;;;;;;18.12;61.02;100802.28;5079391;28;20169;-70
2021/08/05 05:44:53;;;;;;;4.47;4.17;;;;;;;18.69;58.81;100799.22;5058825;28;20473;-70
2021/08/05 05:47:18;;;;;;;4.63;4.23;;;;;;;19.01;58.04;100795.00;5058986;28;20201;-70
2021/08/05 05:49:43;;;;;;;4.90;4.40;;;;;;;18.73;58.50;100794.75;5061868;28;20250;-69
2021/08/05 05:52:09;;;;;;;6.00;4.60;;;;;;;19.01;57.13;100791.47;5060198;28;20264;-70
2021/08/05 05:54:36;;;;;;;4.60;4.13;;;;;;;17.94;60.13;100798.22;5060971;28;20185;-68
2021/08/05 05:57:04;;;;;;;4.83;4.03;;;;;;;17.72;61.29;100811.78;5059611;28;20220;-69
2021/08/05 05:59:29;;;;;;;6.17;5.23;;;;;;;18.46;58.99;100802.41;5061561;28;20443;-69
2021/08/05 06:01:55;;;;;;;4.87;4.13;;;;;;;18.05;60.54;100801.53;5058826;28;20439;-70
2021/08/05 06:04:20;;;;;;;5.40;4.50;;;;;;;18.87;57.49;100796.22;5062410;28;20181;-70
2021/08/05 06:06:45;;;;;;;6.13;4.50;;;;;;;18.94;57.77;100797.81;5074278;28;20484;-70
2021/08/05 06:09:11;;;;;;;4.37;4.00;;;;;;;17.92;59.48;100797.41;5067085;28;20185;-70
2021/08/05 06:11:36;;;;;;;4.97;4.47;;;;;;;18.56;58.22;100792.50;5059163;28;20531;-69
2021/08/05 06:14:01;;;;;;;4.90;4.50;;;;;;;18.61;57.61;100793.25;5061618;28;20185;-69
2021/08/05 06:16:27;;;;;;;4.80;4.40;;;;;;;18.96;57.33;100796.03;5067565;28;20208;-70
2021/08/05 06:18:52;;;;;;;4.70;4.30;;;;;;;18.84;57.54;100794.50;5066189;28;20452;-71
2021/08/05 06:21:17;;;;;;;6.13;4.50;;;;;;;18.16;59.60;100796.88;5057730;28;20535;-68
2021/08/05 06:23:43;;;;;;;4.77;4.37;;;;;;;18.95;57.92;100799.56;5061087;28;20216;-69
2021/08/05 06:26:08;;;;;;;5.20;4.33;;;;;;;18.99;56.88;100788.88;5058801;28;20236;-70
2021/08/05 06:28:33;;;;;;;5.10;4.60;;;;;;;18.55;57.90;100800.47;5067973;28;20197;-69
2021/08/05 06:31:00;;;;;;;4.97;4.40;;;;;;;19.06;56.92;100792.22;5078260;28;20172;-68
2021/08/05 06:33:25;;;;;;;4.60;4.20;;;;;;;18.25;58.80;100801.13;5078607;28;20177;-68
2021/08/05 06:35:50;;;;;;;4.67;4.27;;;;;;;18.91;57.36;100801.41;5078291;28;20445;-69
2021/08/05 06:38:16;;;;;;;4.60;4.20;;;;;;;19.13;55.96;100792.94;5078195;28;20192;-69
2021/08/05 06:40:41;;;;;;;4.73;4.33;;;;;;;19.33;55.16;100798.59;5078742;28;20169;-68
2021/08/05 06:43:06;;;;;;;4.23;3.93;;;;;;;19.07;56.57;100795.75;5067356;28;20208;-69
2021/08/05 06:45:31;;;;;;;6.60;4.27;;;;;;;19.21;55.72;100805.97;5078097;28;20193;-69
2021/08/05 06:47:57;;;;;;;5.13;4.33;;;;;;;19.15;56.46;100799.06;5087288;28;20200;-70
2021/08/05 06:50:22;;;;;;;5.73;4.47;;;;;;;19.90;53.96;100785.63;5078472;28;20184;-70
2021/08/05 06:52:48;;;;;;;5.00;4.40;;;;;;;21.42;50.54;100797.69;5064387;28;20192;-70
2021/08/05 06:55:13;;;;;;;4.77;4.37;;;;;;;21.53;49.70;100790.25;5065741;28;20562;-70
2021/08/05 06:57:38;;;;;;;4.27;3.87;;;;;;;21.43;50.17;100794.09;5077618;28;20282;-69
2021/08/05 07:00:05;;;;;;;4.80;4.27;;;;;;;22.00;49.11;100785.91;5081368;28;20180;-70
2021/08/05 07:02:31;;;;;;;4.97;4.47;;;;;;;22.03;49.04;100786.69;5084259;28;20250;-69
2021/08/05 07:05:01;;;;;;;5.10;4.10;;;;;;;22.86;46.54;100782.59;5080530;28;20745;-70
2021/08/05 07:07:26;;;;;;;4.83;4.43;;;;;;;22.82;46.07;100783.63;5057151;28;20498;-69
2021/08/05 07:09:52;;;;;;;4.40;4.00;;;;;;;22.60;47.01;100782.81;5057900;28;20408;-70
2021/08/05 07:12:17;;;;;;;5.90;4.37;;;;;;;22.80;46.89;100782.84;5065959;28;20500;-68
2021/08/05 07:14:43;;;;;;;5.20;4.40;;;;;;;22.71;46.25;100780.56;5065966;28;20177;-68
2021/08/05 07:17:09;;;;;;;5.30;4.70;;;;;;;25.36;42.10;100772.97;5068824;28;20239;-69
2021/08/05 07:19:35;;;;;;;6.77;4.40;;;;;;;26.19;39.01;100762.34;5064590;28;20465;-69
2021/08/05 07:22:00;;;;;;;4.30;3.97;;;;;;;24.05;43.25;100782.81;5077574;28;20517;-69
2021/08/05 07:24:25;;;;;;;4.70;4.30;;;;;;;27.51;36.65;100771.69;5072619;28;20266;-69
2021/08/05 07:26:51;;;;;;;4.70;4.30;;;;;;;25.10;40.97;100778.75;5062540;28;20518;-69
2021/08/05 07:29:16;;;;;;;5.00;4.57;;;;;;;26.62;38.31;100768.91;5078284;28;20577;-69
2021/08/05 07:31:41;;;;;;;8.40;4.20;;;;;;;23.93;43.00;100779.88;5081017;28;20250;-69
2021/08/05 07:34:07;;;;;;;6.43;5.10;;;;;;;23.68;44.89;100784.47;5081315;28;20246;-69
2021/08/05 07:36:32;;;;;;;5.53;5.13;;;;;;;21.51;48.74;100793.84;5066552;28;20197;-68
2021/08/05 07:38:58;;;;;;;5.00;4.50;;;;;;;22.83;46.41;100785.38;5062635;28;20184;-70
2021/08/05 07:41:23;;;;;;;5.03;4.40;;;;;;;22.74;46.35;100783.09;5064343;28;20192;-69
2021/08/05 07:43:49;;;;;;;5.50;4.60;;;;;;;23.75;43.16;100787.72;5061130;28;20534;-69
2021/08/05 07:46:14;;;;;;;5.20;4.80;;;;;;;22.45;47.44;100790.44;5060974;28;20205;-69
2021/08/05 07:48:40;;;;;;;5.17;4.67;;;;;;;23.00;46.39;100779.38;5061241;28;20554;-68
2021/08/05 07:51:05;;;;;;;5.63;5.13;;;;;;;22.63;46.69;100783.53;5069166;28;20434;-69
2021/08/05 07:53:30;;;;;;;7.90;4.57;;;;;;;21.80;49.28;100790.19;5064737;28;20234;-69
2021/08/05 07:55:56;;;;;;;5.03;4.50;;;;;;;21.69;49.53;100785.28;5072040;28;20186;-68
2021/08/05 07:58:21;;;;;;;5.03;4.63;;;;;;;21.97;49.28;100784.25;5061027;28;20201;-69
2021/08/05 08:00:47;;;;;;;5.33;4.63;;;;;;;22.94;47.04;100782.28;5060446;28;20235;-70
2021/08/05 08:03:12;;;;;;;4.87;4.37;;;;;;;22.74;47.65;100780.44;5066847;28;20253;-69
2021/08/05 08:05:40;;;;;;;8.27;5.40;;;;;;;21.15;51.09;100789.75;5074619;28;20226;-69
2021/08/05 08:08:06;;;;;;;5.30;4.80;;;;;;;21.46;50.19;100794.03;5060694;28;20532;-69
2021/08/05 08:10:31;;;;;;;5.97;4.70;;;;;;;22.27;48.78;100788.47;5060738;28;20416;-69
2021/08/05 08:12:56;;;;;;;5.23;4.73;;;;;;;21.10;51.40;100785.53;5060516;28;20477;-70
2021/08/05 08:15:24;;;;;;;5.50;5.07;;;;;;;22.18;50.18;100784.38;5062139;28;20185;-69
2021/08/05 08:17:50;;;;;;;6.33;5.10;;;;;;;21.81;50.99;100783.97;5060491;28;20235;-68
2021/08/05 08:20:15;;;;;;;5.63;5.13;;;;;;;21.42;51.48;100786.22;5060833;28;20506;-71
2021/08/05 08:22:41;;;;;;;5.87;5.13;;;;;;;22.21;49.95;100774.50;5064191;28;20178;-70
2021/08/05 08:25:07;;;;;;;4.93;4.53;;;;;;;22.21;50.15;100770.97;5069674;28;20558;-71
2021/08/05 08:27:32;;;;;;;6.60;5.17;;;;;;;21.82;50.78;100775.06;5064357;28;20294;-70
2021/08/05 08:29:58;;;;;;;6.00;5.50;;;;;;;21.12;52.72;100778.38;5062784;28;20486;-70
2021/08/05 08:32:23;;;;;;;6.60;5.30;;;;;;;20.43;54.30;100770.84;5064602;28;20189;-70
2021/08/05 08:34:48;;;;;;;5.47;4.50;;;;;;;21.72;51.59;100762.19;5080389;28;20179;-70
2021/08/05 08:37:13;;;;;;;5.80;5.10;;;;;;;21.24;53.20;100764.72;5071828;28;20213;-73
2021/08/05 08:39:39;;;;;;;6.47;4.97;;;;;;;20.94;54.84;100772.78;5060664;28;20592;-68
2021/08/05 08:42:06;;;;;;;5.40;4.90;;;;;;;21.73;52.52;100764.81;5068231;28;20177;-69
2021/08/05 08:44:32;;;;;;;6.23;4.80;;;;;;;22.08;51.38;100757.28;5070881;28;20188;-68
2021/08/05 08:46:57;;;;;;;6.43;5.33;;;;;;;21.63;52.29;100760.75;5062034;28;20490;-68
2021/08/05 08:49:23;;;;;;;5.70;5.20;;;;;;;22.06;51.10;100758.31;5061611;28;20213;-70
2021/08/05 08:51:49;;;;;;;6.20;5.60;;;;;;;21.83;51.58;100752.91;5065967;28;20238;-72
2021/08/05 08:54:14;;;;;;;5.30;4.80;;;;;;;20.75;54.52;100769.88;5061871;28;20718;-71
2021/08/05 08:56:41;;;;;;;6.20;5.67;;;;;;;20.79;55.27;100768.00;5078024;28;20195;-71
2021/08/05 08:59:07;;;;;;;5.77;5.27;;;;;;;21.01;54.85;100765.50;5077719;28;20185;-70
2021/08/05 09:01:32;;;;;;;6.33;5.40;;;;;;;21.25;54.25;100769.09;5074106;28;20497;-72
2021/08/05 09:03:58;;;;;;;6.17;5.60;;;;;;;21.33;54.06;100768.84;5069105;28;20209;-70
2021/08/05 09:06:23;;;;;;;6.57;5.47;;;;;;;22.47;51.00;100756.69;5060956;28;20248;-71
2021/08/05 09:08:49;;;;;;;5.33;4.90;;;;;;;23.26;48.68;100750.84;5059376;28;20192;-71
2021/08/05 09:11:15;;;;;;;5.13;4.73;;;;;;;23.62;47.76;100750.13;5059623;28;20173;-71
2021/08/05 09:13:40;;;;;;;8.30;5.00;;;;;;;22.04;51.01;100753.03;5058887;28;20181;-71
2021/08/05 09:16:26;;;;;;;6.27;4.90;;;;;;;23.09;49.01;100748.88;5059364;28;20193;-69
2021/08/05 09:18:52;;;;;;;12.30;5.23;;;;;;;24.00;46.39;100741.38;5061741;28;20266;-70
2021/08/05 09:21:24;;;;;;;5.87;5.27;;;;;;;23.53;46.95;100738.13;5059303;28;20794;-71
2021/08/05 09:23:57;;;;;;;8.00;6.10;;;;;;;23.66;47.09;100738.41;5062493;28;20225;-73
2021/08/05 09:26:41;;;;;;;5.43;4.93;;;;;;;24.83;44.80;100737.41;5079168;28;20550;-69
2021/08/05 09:29:08;;;;;;;6.50;5.10;;;;;;;26.09;41.93;100734.41;5064633;28;20856;-74
2021/08/05 09:31:35;;;;;;;5.93;5.00;;;;;;;26.14;41.16;100729.69;5070175;28;20817;-70
2021/08/05 09:34:08;;;;;;;6.60;4.70;;;;;;;26.75;40.14;100729.81;5078797;28;20443;-67
2021/08/05 09:36:34;;;;;;;5.10;4.60;;;;;;;27.12;37.91;100730.31;5077834;28;20465;-68
2021/08/05 09:39:00;;;;;;;5.17;4.77;;;;;;;28.73;36.63;100726.44;5064307;28;20534;-70
2021/08/05 09:41:26;;;;;;;4.50;4.10;;;;;;;28.73;35.71;100720.25;5059093;28;20813;-71
2021/08/05 09:44:01;;;;;;;4.87;4.40;;;;;;;27.12;39.25;100724.97;5058534;28;20253;-70
2021/08/05 09:46:30;;;;;;;4.50;4.20;;;;;;;29.98;34.11;100702.66;5058794;28;20200;-70
2021/08/05 09:48:56;;;;;;;4.93;4.43;;;;;;;27.62;37.91;100713.94;5061251;28;20474;-71
2021/08/05 09:51:21;;;;;;;6.07;4.50;;;;;;;25.40;42.40;100714.97;5058969;28;20440;-69
2021/08/05 09:53:53;;;;;;;7.00;4.47;;;;;;;28.43;37.47;100712.38;5060312;28;20256;-69
2021/08/05 09:56:19;;;;;;;5.43;4.70;;;;;;;29.04;36.41;100705.59;5059951;28;20231;-67
2021/08/05 09:58:44;;;;;;;7.87;4.40;;;;;;;28.68;36.20;100701.75;5060573;28;20778;-68
2021/08/05 10:01:10;;;;;;;5.23;4.83;;;;;;;27.66;38.25;100688.69;5058602;28;20539;-67
2021/08/05 10:03:38;;;;;;;4.70;4.30;;;;;;;28.29;37.40;100689.16;5066441;28;20267;-68
2021/08/05 10:06:05;;;;;;;4.83;4.43;;;;;;;29.34;35.27;100674.91;5058701;28;20202;-69
2021/08/05 10:08:39;;;;;;;5.77;4.50;;;;;;;27.10;39.74;100683.19;5059977;28;20850;-69
2021/08/05 10:11:05;;;;;;;4.80;4.40;;;;;;;28.92;36.54;100674.22;5057931;28;20477;-69
2021/08/05 10:13:36;;;;;;;6.17;4.80;;;;;;;28.06;38.31;100675.44;5058745;28;20427;-72
2021/08/05 10:16:03;;;;;;;6.10;4.37;;;;;;;27.63;38.34;100680.84;5068454;28;20558;-67
2021/08/05 10:18:31;;;;;;;4.63;4.23;;;;;;;27.90;37.69;100672.84;5062068;28;20499;-69
2021/08/05 10:20:58;;;;;;;4.60;4.20;;;;;;;27.73;37.53;100672.13;5064587;28;20477;-67
2021/08/05 10:23:25;;;;;;;4.70;4.40;;;;;;;28.42;37.20;100671.31;5062120;28;20484;-68
2021/08/05 10:25:50;;;;;;;4.83;4.30;;;;;;;26.61;40.72;100670.91;5059733;28;20466;-71
2021/08/05 10:28:17;;;;;;;4.87;4.30;;;;;;;28.76;36.63;100676.25;5055657;28;20444;-70
2021/08/05 10:30:42;;;;;;;4.70;4.30;;;;;;;26.66;39.46;100668.81;5063139;28;20203;-69
2021/08/05 10:33:08;;;;;;;4.67;4.10;;;;;;;26.91;38.78;100654.84;5073417;28;20448;-70
2021/08/05 10:35:34;;;;;;;4.97;4.50;;;;;;;28.28;37.23;100655.25;5058967;28;20185;-68
2021/08/05 10:38:00;;;;;;;5.00;4.60;;;;;;;25.49;40.93;100660.22;5067919;28;20602;-69
2021/08/05 10:40:26;;;;;;;5.73;4.30;;;;;;;26.68;38.71;100659.75;5063988;28;20532;-68
2021/08/05 10:42:53;;;;;;;5.23;4.50;;;;;;;26.18;39.89;100663.56;5059444;28;20440;-67
2021/08/05 10:45:20;;;;;;;5.30;4.13;;;;;;;27.90;36.73;100648.75;5057879;28;20185;-69
2021/08/05 10:47:47;;;;;;;4.93;4.50;;;;;;;26.34;39.72;100650.19;5057909;28;20485;-70
2021/08/05 10:50:14;;;;;;;4.50;4.20;;;;;;;27.39;37.29;100652.84;5058392;28;20837;-69
2021/08/05 10:52:44;;;;;;;5.03;4.60;;;;;;;25.72;40.78;100651.81;5057085;28;20420;-70
2021/08/05 10:55:15;;;;;;;4.80;4.40;;;;;;;26.05;39.74;100656.25;5057630;28;20430;-70
2021/08/05 10:57:41;;;;;;;6.07;4.67;;;;;;;26.17;39.72;100645.81;5060231;28;20436;-69
2021/08/05 11:00:11;;;;;;;4.90;4.50;;;;;;;24.48;42.55;100652.03;5070747;28;20457;-68
2021/08/05 11:02:54;;;;;;;5.50;4.90;;;;;;;25.04;41.28;100657.22;5068437;28;20185;-68
2021/08/05 11:05:22;;;;;;;4.80;4.43;;;;;;;26.32;39.28;100634.22;5095986;28;20433;-67
2021/08/05 11:07:52;;;;;;;4.70;4.37;;;;;;;26.41;39.46;100618.59;5073902;28;20463;-70
2021/08/05 11:10:20;;;;;;;5.30;4.50;;;;;;;26.89;37.76;100619.34;5061599;28;20481;-70
2021/08/05 11:12:52;;;;;;;5.20;4.80;;;;;;;26.32;38.32;100620.88;5066095;28;20434;-69
2021/08/05 11:15:25;;;;;;;4.50;4.10;;;;;;;28.00;36.37;100624.91;5071212;28;20439;-68
2021/08/05 11:18:09;;;;;;;4.80;4.10;;;;;;;28.64;33.70;100614.41;5072425;28;20427;-67
2021/08/05 11:20:35;;;;;;;4.50;4.20;;;;;;;25.91;38.23;100610.72;5061801;28;20431;-69